Arraias, Brazil
Current Conditions -  °F | °C
As of 3:00 PM on Friday 24 Oct 2014 (Local Time) from SBPJ Reporting Station
Scattered Clouds Scattered Clouds  
Wind Chill: 88°   Ceiling: Unl
Heat Index: 93°   Visibility: 6mi
Dew Point: 70°   Wind: 7mph
Humidity: 55%   Direction: 220°SW
Pressure: 29.83"   Gusts: NA
Location:  12.93°S, 46.94°W
Report Text: SBPJ 241800Z 22006KT 9999 SCT025 31/21 Q1010
Loading
Personal Weather Stations






























Interactive Weather Map
Tropical Storm Tracking
New forecast layout! Learn more

10-Day Weather Forecast

Advertisements
Track Severe Weather on mobile